Time;durP1;ratioP1;P1;durP2;ratioP2;P2;SDS_P1;SDS_P2;PMS_P1;PMS_P2;Temp;Humidity;BMP_temperature;BMP_pressure;BME280_temperature;BME280_humidity;BME280_pressure;Samples;Min_cycle;Max_cycle;Signal;HPM_P1;HPM_P2
2023/01/17 00:02:22;;;;;;;12.32;3.08;;;3.50;99.90;;;3.36;89.04;96932.19;4945374;28;20260;-75
2023/01/17 00:10:24;;;;;;;9.98;2.47;;;3.40;99.90;;;3.11;89.18;96913.50;4946238;28;20230;-75
2023/01/17 00:12:54;;;;;;;6.65;1.73;;;3.30;99.90;;;3.17;88.75;96932.53;4943409;28;20225;-74
2023/01/17 00:15:23;;;;;;;8.35;2.10;;;3.50;99.90;;;3.09;89.14;96923.09;4939240;28;20230;-76
2023/01/17 00:17:51;;;;;;;19.85;4.47;;;3.30;99.90;;;2.99;89.59;96927.63;4948661;28;20336;-75
2023/01/17 00:26:17;;;;;;;13.43;3.25;;;3.00;99.90;;;2.88;90.03;96956.50;4958060;28;20230;-76
2023/01/17 01:33:40;;;;;;;32.08;7.15;;;3.20;99.90;;;3.08;88.47;97013.59;4965083;23;20363;-76
2023/01/17 01:36:08;;;;;;;12.48;2.97;;;3.20;99.90;;;2.98;89.50;97042.47;4966988;28;20317;-76
2023/01/17 01:38:35;;;;;;;13.38;3.33;;;3.10;99.90;;;3.09;89.08;97035.34;4966635;28;20295;-76
2023/01/17 01:41:03;;;;;;;16.00;3.67;;;3.30;99.90;;;3.13;88.84;97040.47;4968808;28;20265;-76
2023/01/17 01:43:48;;;;;;;11.90;2.95;;;3.30;99.90;;;3.05;88.97;97036.28;4970031;28;20229;-75
2023/01/17 01:46:40;;;;;;;12.73;3.08;;;3.20;99.90;;;2.97;90.09;97043.34;4969620;28;20228;-76
2023/01/17 01:49:27;;;;;;;15.73;3.67;;;3.10;99.90;;;2.87;91.05;97066.13;4966338;28;20237;-75
2023/01/17 01:52:00;;;;;;;11.63;2.78;;;3.10;99.90;;;2.91;91.55;97078.22;4965262;28;20295;-76
2023/01/17 01:54:37;;;;;;;15.15;3.53;;;3.00;99.90;;;3.00;91.64;97100.72;4980032;28;20284;-76
2023/01/17 01:57:08;;;;;;;9.75;2.35;;;3.10;99.90;;;3.00;92.09;97111.16;4967834;28;20312;-75
2023/01/17 01:59:41;;;;;;;11.82;2.92;;;3.10;99.90;;;3.04;92.02;97115.47;4983731;28;20234;-76
2023/01/17 02:02:08;;;;;;;11.82;2.83;;;3.10;99.90;;;3.01;92.52;97115.50;4966301;28;20246;-75
2023/01/17 02:04:36;;;;;;;13.65;3.28;;;3.20;99.90;;;2.99;93.08;97135.53;4967854;28;20221;-77
2023/01/17 02:07:10;;;;;;;10.88;2.63;;;3.30;99.90;;;2.92;93.60;97131.28;4967487;28;20232;-76
2023/01/17 02:09:37;;;;;;;10.32;2.70;;;3.10;99.90;;;2.94;94.05;97153.00;4968276;28;20244;-76
2023/01/17 02:12:06;;;;;;;18.90;4.55;;;3.10;99.90;;;2.94;94.60;97166.06;4971331;28;20316;-75
2023/01/17 02:14:33;;;;;;;7.63;1.90;;;3.10;99.90;;;2.88;95.96;97183.50;4984440;28;20225;-75
2023/01/17 02:17:21;;;;;;;11.85;2.83;;;3.10;99.90;;;2.76;96.97;97185.41;4972790;28;20256;-74
2023/01/17 02:20:19;;;;;;;10.18;2.45;;;2.90;99.90;;;2.66;98.65;97205.53;4975342;28;20244;-75
2023/01/17 02:23:15;;;;;;;14.25;3.30;;;2.90;99.90;;;2.55;99.95;97197.78;4968419;28;20268;-74
2023/01/17 02:26:44;;;;;;;13.48;3.38;;;2.90;99.90;;;2.55;100.00;97210.84;4968037;28;20344;-74
2023/01/17 02:30:18;;;;;;;10.90;2.67;;;2.70;99.90;;;2.47;100.00;97223.09;4929916;29;20245;-74
2023/01/17 02:33:02;;;;;;;9.05;2.30;;;2.70;99.90;;;2.44;100.00;97254.41;4940857;28;20244;-72
2023/01/17 02:36:06;;;;;;;9.98;2.47;;;2.60;99.90;;;2.41;100.00;97244.00;4988099;28;20339;-74
2023/01/17 02:38:50;;;;;;;12.73;3.15;;;2.60;99.90;;;2.47;100.00;97238.72;4967121;28;20270;-73
2023/01/17 02:41:24;;;;;;;10.93;2.78;;;2.80;99.90;;;2.38;100.00;97254.47;4982191;28;20288;-72
2023/01/17 02:43:52;;;;;;;14.07;3.40;;;2.60;99.90;;;2.33;100.00;97260.63;4966487;28;20255;-73
2023/01/17 02:46:19;;;;;;;18.75;4.40;;;2.50;99.90;;;2.34;100.00;97260.59;4957356;28;20312;-74
2023/01/17 02:48:47;;;;;;;11.20;2.75;;;2.60;99.90;;;2.30;100.00;97255.41;4968807;28;20240;-74
2023/01/17 02:51:43;;;;;;;14.27;3.40;;;2.70;99.90;;;2.23;100.00;97258.09;4966161;28;20288;-75
2023/01/17 02:54:36;;;;;;;11.30;2.80;;;2.40;99.90;;;2.22;100.00;97266.78;4968742;28;20291;-74
2023/01/17 02:57:48;;;;;;;7.30;1.90;;;2.40;99.90;;;2.11;100.00;97266.00;4964863;28;20809;-76
2023/01/17 03:00:28;;;;;;;8.15;2.10;;;2.30;99.90;;;2.13;100.00;97266.88;4943821;28;20226;-74
2023/01/17 03:03:26;;;;;;;11.00;2.72;;;2.50;99.90;;;2.21;100.00;97272.88;4935110;28;20280;-75
2023/01/17 03:06:17;;;;;;;8.65;2.15;;;2.30;99.90;;;2.37;100.00;97264.91;4963351;28;20237;-75
2023/01/17 03:08:47;;;;;;;7.97;2.03;;;2.50;99.90;;;2.37;100.00;97262.31;4969996;28;20310;-74
2023/01/17 03:11:15;;;;;;;9.43;2.30;;;2.50;99.90;;;2.44;100.00;97264.84;4949383;28;20253;-75
2023/01/17 03:13:42;;;;;;;13.48;3.33;;;2.60;99.90;;;2.45;100.00;97258.75;4968253;28;20374;-76
2023/01/17 03:16:23;;;;;;;8.57;2.13;;;2.60;99.90;;;2.53;100.00;97253.47;4968832;28;20306;-74
2023/01/17 03:18:50;;;;;;;7.93;2.00;;;2.70;99.90;;;2.52;100.00;97246.50;4968409;28;20240;-76
2023/01/17 03:21:17;;;;;;;10.20;2.50;;;2.70;99.90;;;2.46;100.00;97233.53;4969661;28;20228;-75
2023/01/17 03:23:44;;;;;;;16.67;4.00;;;2.60;99.90;;;2.53;100.00;97232.59;4966719;28;20253;-73
2023/01/17 03:26:11;;;;;;;16.92;4.18;;;2.70;99.90;;;2.50;100.00;97236.09;4982376;28;20236;-74
2023/01/17 03:28:38;;;;;;;11.13;2.67;;;2.70;99.90;;;2.53;100.00;97227.38;4968049;28;20229;-76
2023/01/17 03:31:05;;;;;;;8.98;2.30;;;2.70;99.90;;;2.54;100.00;97229.97;4964465;28;20709;-76
2023/01/17 03:33:33;;;;;;;54.35;9.45;;;2.70;99.90;;;2.54;100.00;97237.78;4987582;23;20797;-82
2023/01/17 03:36:00;;;;;;;2.72;0.82;;;3.10;99.90;;;2.49;100.00;97236.13;4953098;28;20229;-79
2023/01/17 03:38:29;;;;;;;20.38;4.38;;;3.50;99.90;;;2.50;100.00;97235.22;4948108;28;20233;-81
2023/01/17 03:40:56;;;;;;;12.25;2.78;;;3.70;99.90;;;2.63;100.00;97229.03;4948751;28;20287;-78
2023/01/17 03:43:23;;;;;;;11.05;2.45;;;3.00;99.90;;;2.71;100.00;97222.00;4957619;28;20232;-77
2023/01/17 03:45:53;;;;;;;4.20;1.10;;;2.80;99.90;;;2.72;100.00;97215.03;4958101;28;20269;-78
2023/01/17 03:48:20;;;;;;;4.90;1.27;;;2.80;99.90;;;2.79;99.68;97209.72;4952347;28;20232;-79
2023/01/17 03:50:50;;;;;;;2.35;0.80;;;2.90;99.90;;;2.80;98.66;97201.00;4968396;28;20256;-75
2023/01/17 03:53:17;;;;;;;9.32;2.20;;;3.00;99.90;;;2.81;97.98;97199.25;4956016;28;20329;-77
2023/01/17 03:55:45;;;;;;;7.35;1.70;;;2.90;99.90;;;2.81;97.63;97194.91;4949702;28;20269;-76
2023/01/17 03:58:12;;;;;;;2.65;0.80;;;3.00;99.90;;;2.75;97.86;97192.38;4951154;28;20340;-77
2023/01/17 04:00:39;;;;;;;8.15;2.00;;;2.90;99.90;;;2.87;96.29;97194.84;4953038;28;20275;-77
2023/01/17 04:03:06;;;;;;;4.72;1.20;;;3.00;99.90;;;2.88;95.34;97178.31;4953986;28;20300;-80
2023/01/17 04:05:33;;;;;;;15.38;3.40;;;3.00;99.90;;;2.86;95.56;97172.22;4951021;28;20252;-76
2023/01/17 04:08:00;;;;;;;2.83;0.85;;;3.00;99.90;;;2.97;93.86;97160.78;4955382;28;20244;-78
2023/01/17 04:10:27;;;;;;;9.80;2.30;;;3.30;99.90;;;2.96;93.03;97149.50;4956994;28;20269;-76
2023/01/17 04:12:54;;;;;;;5.03;1.50;;;3.10;99.90;;;2.88;93.61;97154.81;4959964;28;20264;-75
2023/01/17 04:15:21;;;;;;;4.47;1.13;;;3.10;99.90;;;2.82;93.95;97147.06;4956501;28;20264;-75
2023/01/17 04:17:49;;;;;;;13.13;2.95;;;3.00;99.90;;;2.82;93.75;97154.03;4945859;28;20260;-75
2023/01/17 04:20:36;;;;;;;6.75;1.63;;;3.10;99.90;;;2.86;92.96;97143.53;4954606;28;20237;-76
2023/01/17 04:23:03;;;;;;;2.08;0.70;;;3.00;99.90;;;2.81;92.83;97121.00;4961217;28;20288;-76
2023/01/17 04:25:31;;;;;;;2.90;0.90;;;3.00;99.90;;;2.68;93.60;97116.81;4965757;28;20652;-78
2023/01/17 04:28:00;;;;;;;2.92;0.88;;;2.90;99.90;;;2.62;92.51;97102.13;4964239;28;20760;-79
2023/01/17 04:30:28;;;;;;;4.63;1.25;;;2.80;99.90;;;2.57;92.51;97099.53;4955460;28;20320;-77
2023/01/17 04:32:56;;;;;;;3.42;0.98;;;3.00;99.90;;;2.46;92.58;97095.34;4962803;28;20230;-76
2023/01/17 04:35:24;;;;;;;16.38;3.78;;;2.60;99.90;;;2.36;93.20;97099.78;4954308;23;20240;-77
2023/01/17 04:37:51;;;;;;;15.00;3.33;;;2.50;99.90;;;2.39;93.26;97110.19;4991134;28;20237;-77
2023/01/17 04:40:19;;;;;;;9.02;2.30;;;2.60;99.90;;;2.51;92.67;97119.59;4971211;28;20228;-77
2023/01/17 04:42:47;;;;;;;10.32;2.70;;;2.10;99.90;;;2.65;91.55;97112.50;4973621;28;20303;-77
2023/01/17 04:45:15;;;;;;;13.32;3.28;;;2.80;99.90;;;2.63;91.40;97087.31;4980890;28;20224;-77
2023/01/17 04:47:42;;;;;;;14.30;3.45;;;2.80;99.90;;;2.57;91.57;97080.41;4977339;28;20394;-78
2023/01/17 04:50:10;;;;;;;10.60;2.65;;;3.00;99.90;;;2.52;91.88;97085.69;4986243;28;20228;-76
2023/01/17 04:52:37;;;;;;;6.32;1.70;;;2.70;99.90;;;2.50;91.99;97092.66;4950845;28;20233;-75
2023/01/17 04:55:05;;;;;;;9.02;2.30;;;2.70;99.90;;;2.44;91.88;97092.75;4972120;28;20639;-75
2023/01/17 04:57:32;;;;;;;9.65;2.53;;;2.60;99.90;;;2.41;92.07;97087.56;4973404;28;20239;-75
2023/01/17 04:59:59;;;;;;;10.40;2.65;;;2.60;99.90;;;2.47;91.80;97097.91;4965525;28;20237;-75
2023/01/17 05:02:26;;;;;;;7.60;2.00;;;2.60;99.90;;;2.38;92.08;97086.75;4968790;28;20275;-75
2023/01/17 05:04:53;;;;;;;8.70;2.28;;;2.60;99.90;;;2.36;91.84;97088.50;4956769;28;20229;-75
2023/01/17 05:07:20;;;;;;;11.02;2.67;;;2.50;99.90;;;2.37;91.47;97090.22;4967602;28;20292;-75
2023/01/17 05:09:47;;;;;;;8.57;2.22;;;2.60;99.90;;;2.33;91.69;97096.38;4990891;28;20295;-75
2023/01/17 05:12:14;;;;;;;8.70;2.28;;;2.50;99.90;;;2.22;92.71;97094.75;4980166;28;20257;-76
2023/01/17 05:14:41;;;;;;;10.70;2.72;;;2.40;99.90;;;2.31;92.26;97108.56;4959846;28;20248;-75
2023/01/17 05:17:10;;;;;;;9.00;2.33;;;2.40;99.90;;;2.30;92.92;97120.72;4969992;28;20229;-75
2023/01/17 05:19:37;;;;;;;8.05;2.05;;;2.40;99.90;;;2.30;93.20;97127.69;4971590;28;20677;-75
2023/01/17 05:22:13;;;;;;;10.82;2.67;;;2.40;99.90;;;2.26;93.74;97147.72;4973661;28;20287;-76
2023/01/17 05:24:46;;;;;;;8.90;2.25;;;2.40;99.90;;;2.31;94.96;97173.72;4960678;28;20309;-76
2023/01/17 05:27:14;;;;;;;14.90;5.00;;;2.30;99.90;;;2.23;95.03;97158.16;4970146;28;20582;-75
2023/01/17 05:29:41;;;;;;;13.38;3.17;;;2.50;99.90;;;2.25;95.33;97172.91;4965030;28;20578;-75
2023/01/17 05:32:08;;;;;;;10.05;2.45;;;2.10;99.90;;;2.12;97.23;97180.88;4949224;28;20233;-76
2023/01/17 05:34:35;;;;;;;8.50;1.83;;;2.20;99.90;;;2.03;98.12;97197.47;4970953;23;20721;-78
2023/01/17 05:37:03;;;;;;;5.63;1.42;;;2.20;99.90;;;2.09;98.71;97209.56;4982094;28;20239;-78
2023/01/17 05:39:30;;;;;;;3.38;0.95;;;2.20;99.90;;;2.15;98.55;97218.19;4970649;28;20233;-78
2023/01/17 05:41:58;;;;;;;5.82;1.45;;;2.20;99.90;;;2.16;98.76;97222.53;4968932;28;20297;-78
2023/01/17 05:44:26;;;;;;;5.97;1.40;;;2.30;99.90;;;2.19;99.10;97225.09;4968064;28;20237;-78
2023/01/17 05:46:54;;;;;;;3.88;1.10;;;2.30;99.90;;;2.21;99.13;97219.88;4973257;28;20240;-78
2023/01/17 05:49:21;;;;;;;19.27;4.40;;;2.80;99.90;;;2.15;99.59;97217.31;4968262;28;20241;-78
2023/01/17 05:51:48;;;;;;;9.63;2.20;;;2.70;99.90;;;2.16;99.84;97219.91;4965809;28;20642;-78
2023/01/17 05:54:15;;;;;;;3.35;0.95;;;2.30;99.90;;;2.17;100.00;97226.88;4974141;28;20260;-77
2023/01/17 05:56:43;;;;;;;5.80;1.25;;;2.30;99.90;;;2.12;100.00;97220.81;4970021;28;20237;-76
2023/01/17 05:59:10;;;;;;;9.02;2.15;;;2.50;99.90;;;2.14;100.00;97228.63;4965699;28;20240;-80
2023/01/17 06:01:40;;;;;;;14.85;3.38;;;2.30;99.90;;;2.08;100.00;97223.47;4967536;28;20232;-76
2023/01/17 06:04:07;;;;;;;3.78;1.00;;;2.40;99.90;;;2.06;100.00;97239.13;4969173;28;20303;-74
2023/01/17 06:06:34;;;;;;;9.93;2.30;;;2.20;99.90;;;2.01;100.00;97245.25;4970680;28;20241;-74
2023/01/17 06:09:01;;;;;;;5.32;1.40;;;2.20;99.90;;;1.93;100.00;97238.38;4970691;28;20333;-76
2023/01/17 06:11:28;;;;;;;4.22;1.17;;;2.30;99.90;;;1.96;100.00;97247.03;4970114;28;20316;-76
2023/01/17 06:13:55;;;;;;;4.20;1.20;;;2.10;99.90;;;1.99;100.00;97254.81;4972385;28;20249;-75
2023/01/17 06:16:22;;;;;;;7.03;1.67;;;2.10;99.90;;;1.97;100.00;97254.84;4971537;28;20229;-74
2023/01/17 06:18:49;;;;;;;5.85;1.42;;;2.30;99.90;;;1.99;100.00;97252.22;4974993;28;20264;-73
2023/01/17 06:21:16;;;;;;;3.55;1.05;;;2.20;99.90;;;1.98;100.00;97251.34;4973750;28;20237;-75
2023/01/17 06:23:43;;;;;;;4.35;1.25;;;2.20;99.90;;;1.98;100.00;97248.75;4972313;28;20233;-74
2023/01/17 06:26:10;;;;;;;3.63;1.00;;;2.20;99.90;;;1.94;100.00;97260.06;4972062;28;20705;-74
2023/01/17 06:28:37;;;;;;;4.65;1.30;;;2.20;99.90;;;1.90;100.00;97248.81;4971760;28;20280;-74
2023/01/17 06:31:06;;;;;;;5.18;1.40;;;2.00;99.90;;;1.90;100.00;97254.03;4971601;28;20256;-76
2023/01/17 06:36:02;;;;;;;12.43;3.05;;;2.10;99.90;;;1.88;100.00;97258.38;4984664;28;20228;-78
2023/01/17 06:38:29;;;;;;;12.25;2.95;;;2.00;99.90;;;1.88;100.00;97262.72;4988561;28;20251;-78
2023/01/17 06:40:59;;;;;;;11.43;2.88;;;2.00;99.90;;;1.82;100.00;97266.25;4990241;28;20291;-78
2023/01/17 06:43:31;;;;;;;9.90;2.47;;;2.00;99.90;;;1.93;100.00;97269.63;4991481;28;20224;-77
2023/01/17 06:45:59;;;;;;;7.30;1.90;;;2.10;99.90;;;1.87;100.00;97272.28;4994189;28;20232;-78
2023/01/17 06:48:27;;;;;;;10.13;2.45;;;2.00;99.90;;;1.83;100.00;97282.72;4989967;28;20311;-78
2023/01/17 06:50:56;;;;;;;9.57;2.33;;;2.00;99.90;;;1.82;100.00;97287.06;4992017;28;20303;-76
2023/01/17 06:53:23;;;;;;;9.13;2.25;;;2.00;99.90;;;1.83;100.00;97291.41;4973531;28;20232;-76
2023/01/17 06:55:51;;;;;;;8.32;2.03;;;2.00;99.90;;;1.86;100.00;97286.19;4989538;28;20373;-76
2023/01/17 06:58:18;;;;;;;13.30;3.28;;;2.00;99.90;;;1.84;100.00;97290.53;4990899;28;20723;-76
2023/01/17 07:00:45;;;;;;;14.73;3.50;;;2.30;99.90;;;1.81;100.00;97290.56;4966890;28;20240;-77
2023/01/17 07:03:25;;;;;;;13.65;3.22;;;2.20;99.90;;;1.77;100.00;97286.25;4985514;28;20236;-77
2023/01/17 07:05:53;;;;;;;13.02;3.10;;;1.90;99.90;;;1.79;100.00;97289.72;4984011;28;20669;-77
2023/01/17 07:08:20;;;;;;;14.27;3.38;;;2.10;99.90;;;1.81;100.00;97292.31;4975621;28;20232;-77
2023/01/17 07:10:47;;;;;;;13.38;3.17;;;2.10;99.90;;;1.77;100.00;97290.59;4974546;28;20711;-77
2023/01/17 07:13:15;;;;;;;11.05;2.67;;;2.00;99.90;;;1.69;100.00;97293.25;4987427;28;20251;-77
2023/01/17 07:15:42;;;;;;;9.40;2.28;;;1.90;99.90;;;1.65;100.00;97295.88;4989751;28;20260;-77
2023/01/17 07:18:09;;;;;;;9.57;2.40;;;1.80;99.90;;;1.69;100.00;97297.59;4987475;28;20504;-78
2023/01/17 07:20:37;;;;;;;9.35;2.47;;;1.90;99.90;;;1.70;100.00;97291.50;4981988;28;20339;-79
2023/01/17 07:23:05;;;;;;;14.40;3.45;;;2.00;99.90;;;1.71;100.00;97290.63;4979215;28;20228;-79
2023/01/17 07:25:32;;;;;;;9.70;2.42;;;2.40;99.90;;;1.69;100.00;97294.97;4978696;28;20287;-79
2023/01/17 07:27:59;;;;;;;9.65;2.30;;;1.90;99.90;;;1.65;100.00;97291.53;4995426;28;20240;-79
2023/01/17 07:30:26;;;;;;;7.90;2.00;;;2.00;99.90;;;1.67;100.00;97292.38;4976049;28;20286;-79
2023/01/17 07:32:54;;;;;;;13.70;3.22;;;2.00;99.90;;;1.64;100.00;97289.81;4971242;28;20232;-78
2023/01/17 07:35:25;;;;;;;9.10;2.10;;;2.40;99.90;;;1.64;100.00;97291.53;5012661;23;20343;-77
2023/01/17 07:37:53;;;;;;;11.27;2.55;;;2.10;99.90;;;1.65;100.00;97286.31;4966913;28;20228;-74
2023/01/17 07:40:21;;;;;;;5.63;1.55;;;1.80;99.90;;;1.65;100.00;97286.31;4983405;28;20259;-75
2023/01/17 07:42:48;;;;;;;3.47;1.00;;;1.90;99.90;;;1.62;100.00;97282.88;4974235;28;20275;-76
2023/01/17 07:45:16;;;;;;;3.53;1.00;;;2.30;99.90;;;1.60;100.00;97281.16;4981136;28;20232;-76
2023/01/17 07:47:43;;;;;;;12.25;2.78;;;1.80;99.90;;;1.59;100.00;97279.41;4973103;28;20283;-75
2023/01/17 07:50:12;;;;;;;5.10;1.30;;;1.80;99.90;;;1.58;100.00;97285.50;4978283;28;20720;-74
2023/01/17 07:52:39;;;;;;;4.53;1.20;;;1.80;99.90;;;1.53;100.00;97274.25;4981708;28;20293;-74
2023/01/17 07:55:07;;;;;;;3.08;0.88;;;1.80;99.90;;;1.53;100.00;97275.97;4982325;28;20256;-74
2023/01/17 07:57:34;;;;;;;8.73;1.92;;;1.70;99.90;;;1.55;100.00;97279.44;4965174;28;20233;-74
2023/01/17 08:00:03;;;;;;;8.05;1.88;;;2.20;99.90;;;1.57;100.00;97273.34;4965437;28;20236;-77
2023/01/17 08:02:30;;;;;;;1.85;0.60;;;1.70;99.90;;;1.65;100.00;97267.22;4970646;28;20279;-75
2023/01/17 08:04:57;;;;;;;3.45;1.02;;;2.10;99.90;;;1.65;100.00;97254.22;4954600;28;20276;-75
2023/01/17 08:07:24;;;;;;;9.80;2.38;;;2.40;99.90;;;1.63;100.00;97254.22;4971053;28;20233;-75
2023/01/17 08:09:53;;;;;;;4.13;1.10;;;1.90;99.90;;;1.62;100.00;97247.28;4981962;28;20323;-75
2023/01/17 08:12:20;;;;;;;5.07;1.27;;;1.80;99.90;;;1.56;100.00;97234.31;4972574;28;20317;-74
2023/01/17 08:14:47;;;;;;;3.55;1.02;;;1.70;99.90;;;1.50;100.00;97240.41;4953058;28;20233;-75
2023/01/17 08:17:16;;;;;;;6.72;1.65;;;1.70;99.90;;;1.48;100.00;97241.31;4952855;28;20252;-74
2023/01/17 08:19:43;;;;;;;3.05;0.98;;;1.70;99.90;;;1.50;100.00;97236.94;4959779;28;20268;-75
2023/01/17 08:22:13;;;;;;;1.58;0.57;;;2.30;99.90;;;1.50;100.00;97235.22;4987335;28;20264;-75
2023/01/17 08:24:40;;;;;;;7.97;2.05;;;1.70;99.90;;;1.50;100.00;97243.03;4969116;28;20312;-75
2023/01/17 08:27:08;;;;;;;15.35;3.50;;;1.80;99.90;;;1.53;100.00;97236.94;4935554;28;20233;-75
2023/01/17 08:29:35;;;;;;;15.52;3.58;;;1.70;99.90;;;1.54;100.00;97239.53;4960170;28;20269;-76
2023/01/17 08:32:03;;;;;;;16.92;3.72;;;1.90;99.90;;;1.55;100.00;97241.25;4960720;28;20261;-76
2023/01/17 08:34:32;;;;;;;21.08;4.85;;;1.70;99.90;;;1.57;100.00;97239.50;5065819;23;20742;-77
2023/01/17 08:36:59;;;;;;;12.10;2.90;;;1.80;99.90;;;1.62;100.00;97238.59;4985712;28;20757;-78
2023/01/17 08:39:26;;;;;;;8.00;2.08;;;2.50;99.90;;;1.65;100.00;97238.59;4973842;28;20259;-80
2023/01/17 08:41:53;;;;;;;13.80;3.33;;;1.90;99.90;;;1.65;100.00;97238.59;4997194;28;20252;-79
2023/01/17 08:44:20;;;;;;;14.60;3.50;;;2.00;99.90;;;1.69;100.00;97237.69;4988333;28;20279;-81
2023/01/17 08:46:49;;;;;;;10.10;2.45;;;1.80;99.90;;;1.74;100.00;97239.38;4991763;28;20236;-81
2023/01/17 08:49:16;;;;;;;9.55;2.42;;;1.90;99.90;;;1.76;100.00;97249.78;4988150;28;20284;-79
2023/01/17 08:51:43;;;;;;;8.95;2.30;;;1.90;99.90;;;1.77;100.00;97243.72;4981555;28;20263;-78
2023/01/17 08:54:11;;;;;;;13.40;3.17;;;1.90;99.90;;;1.84;100.00;97251.47;4964349;28;20256;-78
2023/01/17 08:56:38;;;;;;;11.10;2.75;;;2.10;99.90;;;1.88;100.00;97247.97;4986790;28;20236;-78
2023/01/17 08:59:06;;;;;;;7.25;1.92;;;2.00;99.90;;;1.90;100.00;97258.38;4998256;28;20239;-78
2023/01/17 09:01:39;;;;;;;9.07;2.35;;;2.00;99.90;;;1.97;100.00;97259.19;4995187;28;20228;-78
2023/01/17 09:04:13;;;;;;;8.52;2.10;;;2.10;99.90;;;1.99;100.00;97268.72;4995818;28;20264;-78
2023/01/17 09:06:47;;;;;;;12.02;2.90;;;2.10;99.90;;;1.98;100.00;97269.59;4975012;28;20227;-78
2023/01/17 09:09:17;;;;;;;15.60;3.65;;;2.10;99.90;;;2.07;100.00;97284.28;4991459;28;20362;-78
2023/01/17 09:11:44;;;;;;;10.10;2.50;;;2.20;99.90;;;2.13;100.00;97297.28;4989675;28;20264;-78
2023/01/17 09:14:12;;;;;;;9.38;2.25;;;2.40;99.90;;;2.07;100.00;97286.91;4998837;28;20251;-78
2023/01/17 09:16:39;;;;;;;9.25;2.22;;;2.20;99.90;;;2.17;100.00;97298.97;5004826;28;20260;-80
2023/01/17 09:19:06;;;;;;;8.35;2.05;;;2.30;99.90;;;2.25;100.00;97305.88;4996126;28;20294;-78
2023/01/17 09:21:33;;;;;;;9.57;2.47;;;2.30;99.90;;;2.31;100.00;97309.28;4994101;28;20248;-78
2023/01/17 09:24:00;;;;;;;7.95;1.92;;;2.40;99.90;;;2.33;100.00;97304.94;4992322;28;20224;-78
2023/01/17 09:26:29;;;;;;;9.27;2.22;;;2.40;99.90;;;2.32;100.00;97301.47;5004361;28;20231;-78
2023/01/17 09:28:57;;;;;;;6.85;1.92;;;2.40;99.90;;;2.42;100.00;97305.72;4998072;28;20235;-78
2023/01/17 09:31:28;;;;;;;13.23;3.15;;;2.50;99.90;;;2.52;100.00;97312.56;4997187;28;20224;-78
2023/01/17 09:33:57;;;;;;;69.65;11.15;;;2.80;99.90;;;2.62;100.00;97308.16;5036538;23;20220;-78
2023/01/17 09:36:27;;;;;;;12.02;2.63;;;2.60;99.90;;;2.63;100.00;97306.44;4961566;28;20230;-76
2023/01/17 09:38:56;;;;;;;7.18;1.67;;;2.70;99.90;;;2.71;100.00;97309.81;4978426;28;20284;-76
2023/01/17 09:41:31;;;;;;;8.90;2.00;;;3.00;99.90;;;2.79;100.00;97305.41;4972964;28;20233;-77
2023/01/17 09:44:28;;;;;;;5.05;1.27;;;2.80;99.90;;;2.88;100.00;97298.34;4972404;28;20291;-75
2023/01/17 09:47:30;;;;;;;5.97;1.50;;;2.90;99.90;;;3.04;100.00;97319.03;4969289;28;20252;-76
2023/01/17 09:50:30;;;;;;;5.03;1.30;;;3.10;99.90;;;3.10;100.00;97326.81;4969743;28;20244;-75
2023/01/17 09:53:14;;;;;;;2.55;1.05;;;3.20;99.90;;;3.05;100.00;97318.16;4967351;28;20253;-75
2023/01/17 09:56:05;;;;;;;3.58;1.05;;;3.20;99.90;;;3.13;100.00;97330.25;4964519;28;20228;-75
2023/01/17 09:59:04;;;;;;;3.60;1.00;;;3.20;99.90;;;3.24;100.00;97347.53;4957940;28;20249;-75
2023/01/17 10:02:24;;;;;;;4.65;1.20;;;3.30;99.90;;;3.28;100.00;97364.91;4972992;28;20225;-75
2023/01/17 10:05:15;;;;;;;2.35;0.77;;;3.40;99.90;;;3.34;100.00;97360.47;4905584;28;20583;-78
2023/01/17 10:08:06;;;;;;;7.20;1.67;;;3.40;99.90;;;3.32;100.00;97354.41;4975319;28;20236;-76
2023/01/17 10:10:42;;;;;;;3.55;1.00;;;3.50;99.90;;;3.37;100.00;97355.22;4964357;28;20357;-78
2023/01/17 10:14:02;;;;;;;2.38;0.70;;;3.50;99.90;;;3.41;100.00;97342.97;4973402;28;20233;-76
2023/01/17 10:16:57;;;;;;;2.30;0.75;;;3.50;99.90;;;3.52;100.00;97344.56;4943222;28;20233;-79
2023/01/17 10:19:48;;;;;;;3.47;0.93;;;3.60;99.90;;;3.62;100.00;97345.31;4972989;28;20295;-76
2023/01/17 10:22:45;;;;;;;1.30;0.50;;;3.70;99.90;;;3.52;100.00;97321.06;4978805;28;20260;-76
2023/01/17 10:25:41;;;;;;;4.65;1.15;;;3.70;99.90;;;3.75;100.00;97335.56;4971286;28;20292;-78
2023/01/17 10:28:21;;;;;;;4.65;1.17;;;3.80;99.90;;;3.71;100.00;97332.13;4963863;28;20252;-77
2023/01/17 10:30:51;;;;;;;3.70;1.08;;;3.90;99.90;;;3.66;100.00;97320.03;4959818;28;20236;-76
2023/01/17 10:33:34;;;;;;;4.75;1.30;;;3.80;99.90;;;3.78;100.00;97323.31;4981722;28;20237;-76
2023/01/17 10:36:20;;;;;;;10.43;2.55;;;3.90;99.90;;;3.98;100.00;97335.28;4994098;23;20257;-82
2023/01/17 10:38:53;;;;;;;17.23;4.03;;;4.10;99.90;;;3.93;100.00;97314.44;4970418;28;20291;-85
2023/01/17 10:41:37;;;;;;;10.18;2.50;;;4.40;99.90;;;3.93;100.00;97295.28;4954876;28;20234;-82
2023/01/17 10:44:17;;;;;;;10.05;2.35;;;4.30;99.90;;;3.92;100.00;97291.81;4952498;28;20241;-80
2023/01/17 10:46:54;;;;;;;15.57;3.60;;;4.10;99.90;;;4.11;100.00;97303.69;4935262;28;20294;-79
2023/01/17 10:49:24;;;;;;;13.43;3.17;;;4.10;99.90;;;4.02;100.00;97276.84;4970367;28;20361;-79
2023/01/17 10:52:02;;;;;;;7.85;1.90;;;4.20;99.90;;;3.94;99.74;97263.88;4970274;28;20232;-80
2023/01/17 10:54:52;;;;;;;8.88;2.20;;;4.10;99.90;;;4.01;99.02;97262.91;4971027;28;20289;-82
2023/01/17 10:57:23;;;;;;;10.45;2.53;;;4.20;99.90;;;4.04;99.42;97265.47;4952746;28;20288;-83
2023/01/17 10:59:52;;;;;;;8.52;2.08;;;4.20;99.90;;;4.10;100.00;97282.81;4967353;28;20572;-87
2023/01/17 11:02:30;;;;;;;11.30;2.63;;;4.20;99.90;;;3.92;100.00;97285.72;4937451;28;20229;-83
2023/01/17 11:05:04;;;;;;;8.18;2.03;;;4.10;99.90;;;4.00;100.00;97304.75;4938034;28;20239;-79
2023/01/17 11:07:31;;;;;;;17.80;4.13;;;4.10;99.90;;;3.91;100.00;97287.47;4961401;28;20245;-79
2023/01/17 11:09:58;;;;;;;10.15;2.40;;;4.10;99.90;;;3.91;100.00;97282.22;4969604;28;20241;-79
2023/01/17 11:12:43;;;;;;;15.00;3.47;;;4.10;99.90;;;4.15;100.00;97313.22;4966779;28;20237;-80
2023/01/17 11:15:09;;;;;;;10.63;2.72;;;4.20;99.90;;;4.20;100.00;97299.22;4942416;28;20229;-80
2023/01/17 11:18:00;;;;;;;108.45;20.58;;;4.30;99.90;;;4.07;100.00;97269.78;5575270;23;20239;-80
2023/01/17 11:20:35;;;;;;;13.20;2.92;;;4.30;99.90;;;4.15;100.00;97271.38;4975938;28;20240;-83
2023/01/17 11:23:13;;;;;;;6.32;1.88;;;4.40;99.90;;;4.17;99.36;97264.38;4990197;28;20231;-79
2023/01/17 11:25:50;;;;;;;8.10;1.98;;;4.30;99.90;;;4.59;100.00;97292.44;4980278;28;20225;-78
2023/01/17 11:28:29;;;;;;;11.65;2.58;;;4.50;99.90;;;4.65;98.84;97280.13;4960078;28;20238;-78
2023/01/17 11:31:06;;;;;;;4.32;1.15;;;5.40;99.90;;;4.55;97.40;97243.69;4969644;28;20686;-76
2023/01/17 11:33:46;;;;;;;42.17;8.98;;;4.70;99.90;;;4.73;97.53;97241.59;4963806;23;20239;-82
2023/01/17 11:36:17;;;;;;;15.00;3.45;;;4.60;99.90;;;4.65;95.87;97212.09;4976398;28;20228;-82
2023/01/17 11:39:05;;;;;;;15.98;3.33;;;4.80;99.90;;;4.74;93.80;97187.50;4978471;28;20241;-82
2023/01/17 11:41:39;;;;;;;20.77;4.10;;;4.90;99.90;;;4.71;93.50;97174.47;4949859;28;20236;-83
2023/01/17 11:44:27;;;;;;;15.85;3.63;;;4.70;99.90;;;5.07;94.29;97205.13;4980723;28;20324;-81
2023/01/17 11:47:12;;;;;;;23.88;5.22;;;5.10;99.90;;;5.30;94.73;97222.16;4956283;28;20242;-82
2023/01/17 11:49:43;;;;;;;9.85;2.45;;;5.30;99.90;;;4.96;93.04;97164.34;4958478;28;20232;-80
2023/01/17 11:52:25;;;;;;;9.15;2.22;;;5.20;99.90;;;4.95;92.90;97157.38;4957278;28;20274;-80
2023/01/17 11:54:54;;;;;;;11.68;2.75;;;5.10;99.90;;;4.94;92.17;97151.28;4953765;28;20259;-80
2023/01/17 11:57:33;;;;;;;10.02;2.40;;;5.10;99.90;;;4.96;90.73;97122.47;4958396;28;20295;-80
2023/01/17 12:00:22;;;;;;;13.15;3.13;;;5.10;99.90;;;4.73;89.47;97065.38;4934611;28;20233;-82
2023/01/17 12:03:27;;;;;;;11.13;2.60;;;5.00;99.90;;;4.74;88.00;97033.06;4942678;28;20261;-80
2023/01/17 12:06:27;;;;;;;8.48;2.00;;;4.90;99.90;;;4.67;88.01;97021.88;4984164;28;20228;-80
2023/01/17 12:09:46;;;;;;;8.23;2.13;;;4.90;99.90;;;4.71;87.77;97017.44;4955308;28;20237;-80
2023/01/17 12:16:41;;;;;;;12.13;2.85;;;4.90;99.90;;;4.73;87.99;97021.75;4937569;28;20264;-80